Time;durP1;ratioP1;P1;durP2;ratioP2;P2;SDS_P1;SDS_P2;PMS_P1;PMS_P2;Temp;Humidity;BMP_temperature;BMP_pressure;BME280_temperature;BME280_humidity;BME280_pressure;Samples;Min_cycle;Max_cycle;Signal;HPM_P1;HPM_P2
2022/10/25 00:01:47;;;;;;;10.75;5.78;;;;;;;13.70;100.00;101005.50;2612862;31;20035;-55
2022/10/25 00:04:19;;;;;;;10.90;6.50;;;;;;;13.83;100.00;101002.44;2613399;36;20037;-54
2022/10/25 00:06:47;;;;;;;12.18;5.28;;;;;;;13.75;100.00;101002.34;2615179;36;20038;-53
2022/10/25 00:09:15;;;;;;;16.38;6.57;;;;;;;13.84;100.00;101004.16;2615556;31;20030;-57
2022/10/25 00:11:43;;;;;;;13.73;6.23;;;;;;;13.90;100.00;101006.22;2616178;36;20038;-58
2022/10/25 00:14:17;;;;;;;16.63;6.53;;;;;;;13.92;100.00;101001.50;2615788;36;20022;-56
2022/10/25 00:16:45;;;;;;;10.63;6.00;;;;;;;14.08;100.00;100995.38;2615525;36;20088;-57
2022/10/25 00:19:14;;;;;;;15.10;6.53;;;;;;;14.05;100.00;100998.41;2615324;36;20035;-56
2022/10/25 00:21:45;;;;;;;12.25;5.68;;;;;;;14.11;100.00;101000.50;2615279;36;20065;-54
2022/10/25 00:24:14;;;;;;;13.05;5.70;;;;;;;14.05;100.00;101000.28;2615908;36;20049;-57
2022/10/25 00:26:42;;;;;;;10.45;5.90;;;;;;;14.04;100.00;101001.28;2615325;36;20034;-56
2022/10/25 00:29:12;;;;;;;10.60;5.85;;;;;;;13.99;100.00;100994.47;2615283;36;20200;-56
2022/10/25 00:31:40;;;;;;;;;;;;;;;13.92;100.00;101000.66;2615275;36;20069;-58
2022/10/25 00:34:08;;;;;;;14.13;6.43;;;;;;;13.87;100.00;101008.38;2616711;36;20474;-54
2022/10/25 00:36:37;;;;;;;15.50;6.75;;;;;;;13.94;100.00;101004.06;2615533;36;20038;-57
2022/10/25 00:39:08;;;;;;;13.95;6.85;;;;;;;13.97;100.00;101009.16;2616264;36;20444;-53
2022/10/25 00:41:36;;;;;;;10.02;6.50;;;;;;;13.95;100.00;101022.00;2615739;31;20057;-57
2022/10/25 00:44:35;;;;;;;14.07;6.40;;;;;;;14.04;100.00;101031.88;2615889;36;20045;-57
2022/10/25 00:47:05;;;;;;;14.52;8.40;;;;;;;14.01;100.00;101021.38;2615554;36;20034;-57
2022/10/25 00:49:35;;;;;;;14.98;6.85;;;;;;;14.03;100.00;101024.78;2616040;31;20041;-55
2022/10/25 00:52:06;;;;;;;18.45;8.27;;;;;;;13.93;100.00;101030.28;2615706;36;20035;-60
2022/10/25 00:54:40;;;;;;;15.27;7.32;;;;;;;13.98;100.00;101030.63;2615320;31;20038;-58
2022/10/25 00:57:16;;;;;;;16.98;7.57;;;;;;;14.12;100.00;101034.69;2615447;31;20556;-56
2022/10/25 00:59:46;;;;;;;13.77;7.63;;;;;;;14.24;100.00;101029.88;2615029;36;20027;-58
2022/10/25 01:02:15;;;;;;;12.90;6.72;;;;;;;14.21;100.00;101022.06;2615899;36;20030;-59
2022/10/25 01:04:45;;;;;;;15.85;7.93;;;;;;;14.22;100.00;101029.16;2616265;31;20027;-62
2022/10/25 01:07:13;;;;;;;14.63;7.65;;;;;;;14.18;100.00;101035.91;2613771;36;20041;-58
2022/10/25 01:09:44;;;;;;;21.15;8.57;;;;;;;14.23;100.00;101030.88;2616659;36;20286;-57
2022/10/25 01:12:13;;;;;;;14.90;7.53;;;;;;;14.29;100.00;101029.41;2616003;36;20026;-57
2022/10/25 01:14:44;;;;;;;15.48;7.80;;;;;;;14.14;100.00;101042.66;2616106;36;20034;-58
2022/10/25 01:17:19;;;;;;;18.75;7.30;;;;;;;14.15;100.00;101038.94;2614333;36;20034;-58
2022/10/25 01:20:13;;;;;;;14.95;7.10;;;;;;;14.22;100.00;101044.56;2616371;36;20022;-58
2022/10/25 01:22:48;;;;;;;13.30;7.38;;;;;;;14.16;100.00;101046.03;2615386;36;20635;-58
2022/10/25 01:25:48;;;;;;;13.63;7.40;;;;;;;14.22;100.00;101053.53;2616156;36;20042;-59
2022/10/25 01:28:23;;;;;;;20.35;7.70;;;;;;;14.37;100.00;101060.13;2615804;31;20732;-57
2022/10/25 01:31:06;;;;;;;17.45;8.07;;;;;;;14.44;100.00;101059.47;2615697;36;20026;-58
2022/10/25 01:33:38;;;;;;;13.80;7.93;;;;;;;14.46;100.00;101058.31;2616226;36;20030;-58
2022/10/25 01:36:13;;;;;;;15.10;8.15;;;;;;;14.61;100.00;101050.50;2614663;36;20022;-57
2022/10/25 01:38:48;;;;;;;16.50;6.95;;;;;;;14.50;100.00;101048.88;2616579;36;20440;-58
2022/10/25 01:41:25;;;;;;;20.63;7.07;;;;;;;14.54;100.00;101049.41;2615219;36;20125;-57
2022/10/25 01:44:06;;;;;;;18.92;8.73;;;;;;;14.58;100.00;101045.38;2615802;36;20038;-58
2022/10/25 01:46:42;;;;;;;13.77;7.38;;;;;;;14.60;100.00;101048.75;2615808;36;20042;-58
2022/10/25 01:49:16;;;;;;;18.88;7.65;;;;;;;14.64;100.00;101055.59;2613986;36;20042;-58
2022/10/25 01:51:44;;;;;;;17.63;7.68;;;;;;;14.69;100.00;101057.84;2615849;36;20031;-58
2022/10/25 01:54:20;;;;;;;11.70;7.25;;;;;;;14.76;100.00;101066.19;2615460;36;20042;-58
2022/10/25 01:56:59;;;;;;;13.82;6.85;;;;;;;14.98;100.00;101062.94;2615683;36;20039;-58
2022/10/25 01:59:46;;;;;;;18.55;7.45;;;;;;;14.84;100.00;101044.56;2615328;36;20043;-59
2022/10/25 02:02:25;;;;;;;11.70;6.72;;;;;;;14.90;100.00;101052.06;2614857;36;20023;-58
2022/10/25 02:05:05;;;;;;;19.63;7.22;;;;;;;14.94;100.00;101056.13;2615178;36;20552;-58
2022/10/25 02:07:40;;;;;;;17.48;7.47;;;;;;;14.84;100.00;101052.69;2615545;36;20676;-58
2022/10/25 02:10:12;;;;;;;14.38;6.68;;;;;;;14.84;100.00;101047.28;2615937;31;20034;-58
2022/10/25 02:12:48;;;;;;;19.48;6.88;;;;;;;14.77;100.00;101049.78;2615875;36;20039;-60
2022/10/25 02:15:23;;;;;;;16.38;7.22;;;;;;;14.84;100.00;101049.97;2614896;36;20038;-57
2022/10/25 02:17:59;;;;;;;14.45;7.25;;;;;;;14.92;100.00;101058.16;2615799;36;20072;-57
2022/10/25 02:20:31;;;;;;;15.07;6.47;;;;;;;14.86;100.00;101053.41;2615246;36;20042;-58
2022/10/25 02:23:02;;;;;;;16.65;6.88;;;;;;;14.91;100.00;101056.47;2615933;36;20037;-58
2022/10/25 02:25:34;;;;;;;23.88;7.68;;;;;;;14.79;100.00;101052.34;2616160;36;20023;-57
2022/10/25 02:28:04;;;;;;;17.52;7.57;;;;;;;14.79;100.00;101052.34;2615651;36;20042;-58
2022/10/25 02:30:35;;;;;;;16.33;6.93;;;;;;;14.82;100.00;101054.72;2615489;36;20034;-56
2022/10/25 02:33:06;;;;;;;20.27;6.60;;;;;;;14.69;100.00;101069.53;2615507;36;20026;-58
2022/10/25 02:35:35;;;;;;;17.20;6.65;;;;;;;14.92;100.00;101058.16;2614661;36;20027;-58
2022/10/25 02:38:03;;;;;;;14.15;5.90;;;;;;;15.11;100.00;101059.81;2615548;36;20045;-57
2022/10/25 02:40:31;;;;;;;13.52;6.20;;;;;;;14.94;100.00;101064.28;2615805;36;20038;-58
2022/10/25 02:43:00;;;;;;;11.17;5.70;;;;;;;14.84;100.00;101063.53;2615694;36;20034;-58
2022/10/25 02:45:28;;;;;;;17.33;5.55;;;;;;;14.89;100.00;101070.19;2614811;36;20065;-59
2022/10/25 02:47:56;;;;;;;13.17;5.73;;;;;;;14.91;100.00;101072.72;2615649;36;20035;-59
2022/10/25 02:50:27;;;;;;;9.30;5.03;;;;;;;15.05;100.00;101068.59;2615991;36;20038;-58
2022/10/25 02:52:56;;;;;;;14.38;6.03;;;;;;;14.96;100.00;101069.53;2616238;36;20053;-58
2022/10/25 02:55:24;;;;;;;18.75;6.03;;;;;;;14.89;100.00;101074.75;2616460;36;20041;-58
2022/10/25 02:57:52;;;;;;;12.25;6.05;;;;;;;14.95;100.00;101084.94;2616162;36;20049;-58
2022/10/25 03:00:21;;;;;;;9.77;4.67;;;;;;;14.93;100.00;101084.28;2615922;36;20030;-58
2022/10/25 03:02:49;;;;;;;11.60;5.32;;;;;;;14.88;100.00;101086.59;2616023;31;20039;-58
2022/10/25 03:05:17;;;;;;;18.65;5.40;;;;;;;15.01;100.00;101088.88;2616433;36;20061;-59
2022/10/25 03:07:48;;;;;;;14.73;5.93;;;;;;;14.88;100.00;101087.47;2616520;36;20034;-59
2022/10/25 03:10:17;;;;;;;11.18;5.30;;;;;;;15.00;100.00;101087.19;2616153;36;20291;-58
2022/10/25 03:12:45;;;;;;;15.68;5.40;;;;;;;14.91;100.00;101094.41;2615566;36;20031;-59
2022/10/25 03:15:14;;;;;;;16.33;5.05;;;;;;;14.84;100.00;101093.34;2616249;36;20049;-59
2022/10/25 03:17:42;;;;;;;12.23;5.53;;;;;;;14.89;100.00;101102.69;2616486;36;20041;-59
2022/10/25 03:20:11;;;;;;;16.25;5.30;;;;;;;14.89;100.00;101107.28;2616312;36;20041;-59
2022/10/25 03:22:40;;;;;;;16.85;5.85;;;;;;;14.85;100.00;101108.59;2616127;36;20026;-58
2022/10/25 03:25:11;;;;;;;14.00;4.90;;;;;;;15.04;100.00;101123.81;2616382;36;20030;-58
2022/10/25 03:27:39;;;;;;;18.38;5.55;;;;;;;14.90;100.00;101127.97;2615859;36;20029;-58
2022/10/25 03:30:09;;;;;;;16.38;5.03;;;;;;;14.88;100.00;101133.53;2615863;31;20038;-53
2022/10/25 03:32:38;;;;;;;16.98;5.30;;;;;;;15.06;100.00;101130.78;2615614;36;20583;-54
2022/10/25 03:35:08;;;;;;;15.43;5.00;;;;;;;14.91;100.00;101134.22;2617661;31;20034;-57
2022/10/25 03:37:36;;;;;;;13.73;4.88;;;;;;;14.99;100.00;101129.72;2616924;31;20022;-56
2022/10/25 03:40:05;;;;;;;12.57;5.80;;;;;;;14.90;100.00;101133.38;2615934;36;20547;-54
2022/10/25 03:42:36;;;;;;;13.77;4.97;;;;;;;14.83;100.00;101140.44;2616113;36;20031;-53
2022/10/25 03:45:05;;;;;;;10.55;5.10;;;;;;;14.78;100.00;101137.31;2615841;36;20034;-52
2022/10/25 03:47:33;;;;;;;14.23;5.72;;;;;;;14.91;100.00;101143.19;2616616;36;20042;-56
2022/10/25 03:50:01;;;;;;;18.20;6.40;;;;;;;14.93;100.00;101145.75;2616143;31;20033;-57
2022/10/25 03:52:29;;;;;;;10.97;4.77;;;;;;;14.90;100.00;101146.94;2616370;36;20038;-55
2022/10/25 03:54:58;;;;;;;18.33;5.67;;;;;;;14.80;100.00;101146.16;2616148;36;20054;-56
2022/10/25 03:57:26;;;;;;;18.10;5.47;;;;;;;14.74;100.00;101146.78;2615698;36;20026;-53
2022/10/25 03:59:58;;;;;;;18.73;5.70;;;;;;;14.80;100.00;101151.59;2616330;36;20507;-56
2022/10/25 04:02:27;;;;;;;14.07;6.18;;;;;;;14.71;100.00;101148.78;2615591;36;20026;-53
2022/10/25 04:04:55;;;;;;;15.00;5.03;;;;;;;14.70;100.00;101147.09;2615755;36;20023;-56
2022/10/25 04:07:24;;;;;;;17.00;5.63;;;;;;;14.66;100.00;101144.84;2616233;31;20427;-54
2022/10/25 04:09:52;;;;;;;18.00;5.90;;;;;;;14.59;100.00;101155.44;2616621;36;20141;-54
2022/10/25 04:12:20;;;;;;;19.40;5.88;;;;;;;14.53;100.00;101147.91;2616161;36;20038;-50
2022/10/25 04:14:49;;;;;;;13.18;5.97;;;;;;;14.63;100.00;101156.84;2616920;36;20463;-53
2022/10/25 04:17:19;;;;;;;8.73;5.05;;;;;;;14.60;100.00;101149.00;2615724;36;20034;-54
2022/10/25 04:19:48;;;;;;;14.40;5.38;;;;;;;14.63;100.00;101169.53;2615620;36;20029;-52
2022/10/25 04:22:16;;;;;;;15.05;5.82;;;;;;;14.60;100.00;101154.41;2615711;36;20061;-56
2022/10/25 04:24:44;;;;;;;21.83;6.70;;;;;;;14.71;100.00;101170.47;2616104;36;20037;-57
2022/10/25 04:27:13;;;;;;;13.05;6.10;;;;;;;14.81;100.00;101177.66;2616063;36;20038;-56
2022/10/25 04:29:41;;;;;;;20.95;6.47;;;;;;;14.57;100.00;101178.25;2616041;36;20061;-55
2022/10/25 04:32:09;;;;;;;20.20;5.85;;;;;;;14.64;100.00;101184.81;2614771;36;20029;-51
2022/10/25 04:34:40;;;;;;;18.67;5.80;;;;;;;14.65;100.00;101179.22;2616108;36;20045;-56
2022/10/25 04:37:08;;;;;;;19.33;6.03;;;;;;;14.67;100.00;101171.78;2615886;36;20272;-55
2022/10/25 04:39:37;;;;;;;17.77;6.27;;;;;;;14.63;100.00;101172.25;2616366;36;20130;-56
2022/10/25 04:42:05;;;;;;;21.88;5.70;;;;;;;14.65;100.00;101179.22;2615011;31;20555;-56
2022/10/25 04:44:33;;;;;;;19.63;6.07;;;;;;;14.76;100.00;101183.53;2615638;36;20030;-57
2022/10/25 04:47:02;;;;;;;29.30;6.30;;;;;;;14.64;100.00;101179.38;2616321;36;20053;-53
2022/10/25 04:49:30;;;;;;;19.40;5.80;;;;;;;14.56;100.00;101182.84;2616651;36;20034;-55
2022/10/25 04:52:02;;;;;;;18.47;6.13;;;;;;;14.71;100.00;101189.44;2615408;36;20050;-57
2022/10/25 04:54:30;;;;;;;15.10;6.70;;;;;;;14.66;100.00;101183.66;2616497;31;20046;-55
2022/10/25 04:56:59;;;;;;;14.27;6.23;;;;;;;14.80;100.00;101182.22;2615671;36;20400;-56
2022/10/25 04:59:27;;;;;;;19.27;6.28;;;;;;;14.67;100.00;101189.91;2616689;36;20062;-58
2022/10/25 05:01:55;;;;;;;29.40;7.68;;;;;;;14.57;100.00;101189.94;2614410;36;20029;-58
2022/10/25 05:04:24;;;;;;;19.58;7.32;;;;;;;14.62;100.00;101193.09;2615644;31;20038;-57
2022/10/25 05:06:52;;;;;;;18.43;6.80;;;;;;;14.47;100.00;101195.44;2616068;36;20030;-58
2022/10/25 05:09:23;;;;;;;23.42;7.57;;;;;;;14.61;100.00;101194.06;2613030;36;20307;-57
2022/10/25 05:11:52;;;;;;;18.95;6.97;;;;;;;14.48;100.00;101188.16;2612020;36;20034;-58
2022/10/25 05:14:20;;;;;;;38.80;7.47;;;;;;;14.58;100.00;101191.66;2613566;36;20038;-55
2022/10/25 05:16:48;;;;;;;16.77;7.20;;;;;;;14.54;100.00;101195.66;2615953;36;20564;-55
2022/10/25 05:19:16;;;;;;;18.83;7.33;;;;;;;14.29;100.00;101200.81;2612998;36;20039;-55
2022/10/25 05:21:46;;;;;;;19.25;7.28;;;;;;;14.46;100.00;101201.84;2615665;36;20455;-57
2022/10/25 05:24:14;;;;;;;17.55;7.05;;;;;;;14.42;100.00;101205.03;2615660;36;20460;-57
2022/10/25 05:26:45;;;;;;;21.67;7.55;;;;;;;14.24;100.00;101205.00;2615697;36;20057;-53
2022/10/25 05:29:14;;;;;;;18.83;8.57;;;;;;;14.38;100.00;101212.59;2615348;36;20039;-53
2022/10/25 05:31:43;;;;;;;21.63;7.50;;;;;;;14.39;100.00;101221.59;2613737;31;20455;-54
2022/10/25 05:34:12;;;;;;;20.35;8.40;;;;;;;14.41;100.00;101223.13;2607608;31;20540;-55
2022/10/25 05:36:40;;;;;;;27.48;8.25;;;;;;;14.35;100.00;101224.59;2614618;36;20133;-55
2022/10/25 05:39:08;;;;;;;22.50;7.90;;;;;;;14.32;100.00;101222.16;2615381;31;20435;-57
2022/10/25 05:41:37;;;;;;;18.13;7.17;;;;;;;14.40;100.00;101234.09;2615094;36;20030;-57
2022/10/25 05:44:08;;;;;;;15.02;7.35;;;;;;;14.35;100.00;101229.16;2613627;36;20049;-57
2022/10/25 05:46:36;;;;;;;18.60;8.43;;;;;;;14.18;100.00;101228.97;2614601;36;20036;-55
2022/10/25 05:49:05;;;;;;;15.68;6.53;;;;;;;14.33;100.00;101226.59;2616608;36;20023;-56
2022/10/25 05:51:34;;;;;;;17.50;7.73;;;;;;;14.28;100.00;101238.88;2615635;36;20038;-57
2022/10/25 05:54:05;;;;;;;21.02;7.50;;;;;;;14.32;100.00;101235.72;2615988;36;20310;-52
2022/10/25 05:56:35;;;;;;;20.80;7.72;;;;;;;14.20;100.00;101243.19;2614480;36;20558;-57
2022/10/25 05:59:07;;;;;;;15.13;8.13;;;;;;;14.35;100.00;101243.56;2616219;36;20034;-54
2022/10/25 06:01:39;;;;;;;23.50;9.00;;;;;;;14.40;100.00;101248.50;2614907;36;20069;-55
2022/10/25 06:04:07;;;;;;;19.40;9.80;;;;;;;14.24;100.00;101243.75;2615838;36;20031;-57
2022/10/25 06:06:36;;;;;;;22.40;8.30;;;;;;;14.34;100.00;101249.13;2616021;36;20073;-58
2022/10/25 06:09:05;;;;;;;22.85;9.02;;;;;;;14.40;100.00;101244.94;2615392;36;20046;-57
2022/10/25 06:11:35;;;;;;;19.85;8.60;;;;;;;14.56;100.00;101255.97;2615611;36;20061;-57
2022/10/25 06:14:03;;;;;;;20.40;8.80;;;;;;;14.59;100.00;101247.53;2616490;31;20034;-58
2022/10/25 06:16:31;;;;;;;19.77;8.57;;;;;;;14.58;100.00;101250.41;2614030;36;20034;-56
2022/10/25 06:19:02;;;;;;;21.07;9.33;;;;;;;14.69;100.00;101252.91;2616350;36;20034;-57
2022/10/25 06:21:31;;;;;;;18.48;9.27;;;;;;;14.69;100.00;101261.03;2615972;36;20105;-58
2022/10/25 06:24:00;;;;;;;20.48;9.23;;;;;;;14.62;100.00;101263.53;2616605;36;20554;-57
2022/10/25 06:26:30;;;;;;;29.02;9.02;;;;;;;14.57;100.00;101262.22;2615692;36;20042;-58
2022/10/25 06:29:01;;;;;;;18.63;9.38;;;;;;;14.49;100.00;101265.72;2617321;36;20030;-58
2022/10/25 06:31:30;;;;;;;20.42;8.23;;;;;;;14.55;100.00;101265.94;2615776;36;20030;-58
2022/10/25 06:34:02;;;;;;;18.33;8.38;;;;;;;14.45;100.00;101272.44;2617116;36;20544;-59
2022/10/25 06:36:32;;;;;;;21.55;8.75;;;;;;;14.58;100.00;101281.03;2615675;36;20089;-59
2022/10/25 06:39:01;;;;;;;19.73;8.85;;;;;;;14.60;100.00;101289.84;2615799;36;20415;-58
2022/10/25 06:41:30;;;;;;;19.70;8.10;;;;;;;14.56;100.00;101285.78;2613285;36;20038;-58
2022/10/25 06:44:00;;;;;;;17.95;8.43;;;;;;;14.62;100.00;101289.72;2617099;36;20031;-59
2022/10/25 06:46:31;;;;;;;16.13;8.32;;;;;;;14.56;100.00;101296.59;2615943;36;20034;-58
2022/10/25 06:49:04;;;;;;;19.80;7.93;;;;;;;14.51;100.00;101288.06;2614858;36;20053;-58
2022/10/25 06:51:34;;;;;;;20.33;7.85;;;;;;;14.62;100.00;101300.56;2615726;36;20061;-58
2022/10/25 06:54:06;;;;;;;22.13;8.25;;;;;;;14.48;100.00;101297.34;2613142;36;20057;-58
2022/10/25 06:56:35;;;;;;;15.38;7.65;;;;;;;14.53;100.00;101299.59;2613157;36;20045;-59
2022/10/25 06:59:04;;;;;;;17.35;8.07;;;;;;;14.49;100.00;101306.34;2616399;31;20029;-57
2022/10/25 07:01:32;;;;;;;16.77;8.17;;;;;;;14.47;100.00;101302.91;2616178;36;20026;-58
2022/10/25 07:04:04;;;;;;;16.75;7.60;;;;;;;14.40;100.00;101307.22;2615618;36;20550;-57
2022/10/25 07:06:36;;;;;;;16.73;7.15;;;;;;;14.44;100.00;101317.63;2615083;36;20045;-59
2022/10/25 07:09:08;;;;;;;21.05;7.75;;;;;;;14.44;100.00;101319.47;2616756;31;20042;-60
2022/10/25 07:11:37;;;;;;;15.35;6.80;;;;;;;14.53;100.00;101310.44;2615524;36;20038;-58
2022/10/25 07:14:05;;;;;;;17.67;6.57;;;;;;;14.54;100.00;101314.84;2615885;36;20027;-58
2022/10/25 07:16:34;;;;;;;15.38;7.57;;;;;;;14.68;100.00;101319.78;2613767;36;20077;-59
2022/10/25 07:19:06;;;;;;;20.38;7.40;;;;;;;14.75;100.00;101317.31;2617156;31;20030;-59
2022/10/25 07:21:35;;;;;;;18.25;8.27;;;;;;;14.67;100.00;101319.94;2616144;36;20042;-59
2022/10/25 07:24:03;;;;;;;;;;;;;;;14.68;100.00;101325.22;2616936;36;20034;-58
2022/10/25 07:26:33;;;;;;;16.25;7.47;;;;;;;14.65;100.00;101322.81;2615920;36;19934;-59
2022/10/25 07:29:03;;;;;;;15.77;7.78;;;;;;;14.64;100.00;101331.09;2616928;36;20544;-60
2022/10/25 07:31:34;;;;;;;14.75;7.13;;;;;;;14.85;100.00;101333.53;2615222;36;20045;-59
2022/10/25 07:34:06;;;;;;;16.10;6.50;;;;;;;14.76;100.00;101337.16;2616895;36;20049;-58
2022/10/25 07:36:35;;;;;;;17.02;7.30;;;;;;;14.65;100.00;101344.47;2616339;36;20038;-59
2022/10/25 07:39:03;;;;;;;14.18;6.75;;;;;;;14.85;100.00;101347.06;2617914;31;20401;-59
2022/10/25 07:41:32;;;;;;;12.60;6.77;;;;;;;14.88;100.00;101341.34;2614834;31;20042;-59
2022/10/25 07:44:00;;;;;;;16.75;6.40;;;;;;;14.89;100.00;101337.63;2609744;36;20555;-58
2022/10/25 07:46:30;;;;;;;11.37;6.67;;;;;;;14.81;100.00;101341.13;2616112;36;20045;-58
2022/10/25 07:48:58;;;;;;;13.93;7.05;;;;;;;14.78;100.00;101335.13;2616820;36;20912;-59
2022/10/25 07:51:29;;;;;;;11.52;6.95;;;;;;;14.76;100.00;101346.13;2615761;36;20543;-60
2022/10/25 07:53:57;;;;;;;12.68;6.32;;;;;;;14.88;100.00;101346.75;2617285;36;20424;-59
2022/10/25 07:56:25;;;;;;;11.93;5.93;;;;;;;14.87;100.00;101353.22;2615664;31;20023;-59
2022/10/25 07:58:54;;;;;;;12.77;7.30;;;;;;;14.89;100.00;101345.78;2615404;36;20038;-59
2022/10/25 08:01:24;;;;;;;17.52;7.43;;;;;;;15.02;100.00;101346.25;2615168;36;20037;-59
2022/10/25 08:03:53;;;;;;;13.75;6.40;;;;;;;14.73;100.00;101364.56;2616042;36;20022;-58
2022/10/25 08:06:22;;;;;;;11.30;6.13;;;;;;;14.88;100.00;101358.47;2613725;31;20035;-59
2022/10/25 08:08:53;;;;;;;13.95;6.15;;;;;;;14.94;100.00;101358.84;2615854;36;20029;-58
2022/10/25 08:11:21;;;;;;;13.85;7.13;;;;;;;15.05;100.00;101356.78;2615289;36;20041;-58
2022/10/25 08:13:51;;;;;;;11.67;6.57;;;;;;;15.07;100.00;101362.91;2616827;36;20574;-59
2022/10/25 08:16:20;;;;;;;15.02;6.68;;;;;;;15.15;100.00;101366.69;2614914;36;20031;-58
2022/10/25 08:18:48;;;;;;;8.88;6.28;;;;;;;15.21;100.00;101377.78;2615763;31;20058;-58
2022/10/25 08:21:16;;;;;;;13.27;6.60;;;;;;;15.27;100.00;101370.91;2615655;36;20038;-58
2022/10/25 08:23:45;;;;;;;12.70;6.60;;;;;;;15.28;100.00;101371.75;2614888;36;20591;-58
2022/10/25 08:26:15;;;;;;;14.55;6.32;;;;;;;15.09;100.00;101373.59;2615332;36;20081;-59
2022/10/25 08:28:44;;;;;;;15.88;7.15;;;;;;;14.99;100.00;101387.22;2616298;31;20022;-58
2022/10/25 08:31:12;;;;;;;12.53;6.33;;;;;;;15.22;100.00;101384.06;2613714;36;20421;-59
2022/10/25 08:33:40;;;;;;;17.50;6.28;;;;;;;15.37;100.00;101382.53;2614531;36;20027;-59
2022/10/25 08:36:10;;;;;;;12.37;6.60;;;;;;;15.42;100.00;101390.19;2615406;36;20026;-59
2022/10/25 08:38:38;;;;;;;;;;;;;;;15.49;100.00;101390.41;2616135;36;20042;-59
2022/10/25 08:41:13;;;;;;;15.00;6.22;;;;;;;15.33;100.00;101386.56;2615405;36;19938;-59
2022/10/25 08:44:10;;;;;;;10.82;5.88;;;;;;;15.30;100.00;101386.88;2616402;36;20027;-59
2022/10/25 08:46:44;;;;;;;16.90;6.03;;;;;;;15.26;100.00;101385.47;2614934;36;20035;-59
2022/10/25 08:49:19;;;;;;;13.77;6.00;;;;;;;15.27;100.00;101386.31;2615425;36;20507;-58
2022/10/25 08:51:50;;;;;;;11.20;5.72;;;;;;;15.36;100.00;101386.25;2615477;36;20026;-59
2022/10/25 08:54:25;;;;;;;12.77;5.68;;;;;;;15.19;100.00;101387.94;2615063;36;20034;-58
2022/10/25 08:57:01;;;;;;;9.38;5.15;;;;;;;15.30;100.00;101397.72;2615061;36;20133;-59
2022/10/25 08:59:37;;;;;;;13.63;8.18;;;;;;;15.37;100.00;101400.66;2615035;36;20039;-57
2022/10/25 09:02:17;;;;;;;11.27;5.75;;;;;;;15.29;100.00;101406.84;2615119;36;20069;-58
2022/10/25 09:04:45;;;;;;;14.00;6.20;;;;;;;15.52;100.00;101409.97;2616234;36;20057;-57
2022/10/25 09:07:32;;;;;;;8.30;5.68;;;;;;;15.51;100.00;101420.97;2615570;36;20574;-57
2022/10/25 09:10:10;;;;;;;9.80;6.10;;;;;;;15.55;100.00;101422.38;2615546;36;20405;-57
2022/10/25 09:12:44;;;;;;;14.48;6.53;;;;;;;15.72;100.00;101434.22;2615001;36;20061;-58
2022/10/25 09:15:27;;;;;;;9.82;6.00;;;;;;;15.58;100.00;101438.34;2615681;36;20420;-58
2022/10/25 09:17:56;;;;;;;11.93;5.53;;;;;;;15.76;100.00;101443.75;2616656;36;20023;-58
2022/10/25 09:20:30;;;;;;;12.45;4.95;;;;;;;15.81;100.00;101441.47;2615298;31;20042;-55
2022/10/25 09:23:00;;;;;;;13.90;6.55;;;;;;;15.63;100.00;101438.72;2601144;36;20023;-59
2022/10/25 09:25:35;;;;;;;12.02;5.35;;;;;;;15.65;100.00;101447.56;2616273;36;20023;-58
2022/10/25 09:28:09;;;;;;;16.58;5.38;;;;;;;15.86;100.00;101441.00;2616244;36;20061;-58
2022/10/25 09:30:45;;;;;;;10.98;6.07;;;;;;;16.02;100.00;101435.69;2613130;36;20034;-59
2022/10/25 09:33:16;;;;;;;15.13;5.45;;;;;;;16.10;100.00;101443.06;2616087;36;20451;-58
2022/10/25 09:35:48;;;;;;;11.40;5.20;;;;;;;15.86;100.00;101447.28;2615982;36;20026;-58
2022/10/25 09:38:21;;;;;;;13.48;5.85;;;;;;;15.72;100.00;101445.94;2615953;36;20041;-58
2022/10/25 09:40:52;;;;;;;10.60;5.43;;;;;;;15.77;100.00;101450.91;2615111;36;20042;-58
2022/10/25 09:43:36;;;;;;;10.82;4.68;;;;;;;16.01;100.00;101447.56;2614943;36;20042;-58
2022/10/25 09:46:13;;;;;;;8.25;5.15;;;;;;;15.88;100.00;101438.97;2615104;36;20425;-58
2022/10/25 09:48:47;;;;;;;12.52;5.25;;;;;;;15.81;100.00;101448.75;2616252;36;20023;-58
2022/10/25 09:51:23;;;;;;;16.60;5.80;;;;;;;15.93;100.00;101442.94;2616139;36;20034;-58
2022/10/25 09:53:53;;;;;;;9.20;5.07;;;;;;;15.54;100.00;101448.63;2615576;31;20026;-58
2022/10/25 09:56:21;;;;;;;11.13;5.50;;;;;;;15.72;100.00;101459.50;2614391;31;20031;-58
2022/10/25 09:58:50;;;;;;;12.03;6.23;;;;;;;15.75;100.00;101464.63;2615638;36;20034;-58
2022/10/25 10:01:24;;;;;;;9.97;4.73;;;;;;;15.59;100.00;101465.31;2616519;36;20295;-57
2022/10/25 10:03:53;;;;;;;12.90;5.22;;;;;;;15.72;100.00;101464.94;2617349;36;20292;-58
2022/10/25 10:06:25;;;;;;;11.15;5.25;;;;;;;15.79;100.00;101475.19;2618026;36;20461;-58
2022/10/25 10:08:58;;;;;;;10.25;4.78;;;;;;;16.03;100.00;101475.44;2616239;36;20165;-58
2022/10/25 10:11:27;;;;;;;8.80;5.00;;;;;;;16.10;100.00;101473.75;2617511;36;20432;-57
2022/10/25 10:14:00;;;;;;;9.10;4.80;;;;;;;16.06;100.00;101472.41;2616162;36;20118;-57
2022/10/25 10:16:35;;;;;;;7.85;4.22;;;;;;;16.02;100.00;101468.28;2617645;36;20419;-59
2022/10/25 10:19:17;;;;;;;13.52;5.13;;;;;;;16.07;100.00;101481.38;2617301;36;20034;-58
2022/10/25 10:21:46;;;;;;;10.13;4.65;;;;;;;15.98;100.00;101475.03;2615975;36;20035;-57
2022/10/25 10:24:21;;;;;;;9.77;4.80;;;;;;;16.29;100.00;101469.16;2616209;36;20566;-58
2022/10/25 10:26:57;;;;;;;12.07;4.40;;;;;;;16.38;100.00;101479.06;2616650;36;20026;-58
2022/10/25 10:29:36;;;;;;;14.85;4.60;;;;;;;16.28;100.00;101483.75;2617889;54;20069;-57
2022/10/25 10:32:24;;;;;;;10.77;4.30;;;;;;;16.33;100.00;101481.41;2618529;36;20070;-57
2022/10/25 10:34:55;;;;;;;11.43;4.95;;;;;;;16.04;100.00;101485.25;2617208;36;20022;-58
2022/10/25 10:37:25;;;;;;;10.80;4.78;;;;;;;16.04;100.00;101482.53;2617122;36;20026;-57
2022/10/25 10:39:55;;;;;;;10.35;4.82;;;;;;;16.19;100.00;101485.53;2617519;36;20042;-58
2022/10/25 10:42:24;;;;;;;7.47;4.50;;;;;;;16.21;100.00;101493.53;2616598;36;20034;-58
2022/10/25 10:45:16;;;;;;;8.63;5.05;;;;;;;16.34;100.00;101495.84;2617033;36;20023;-58
2022/10/25 10:47:58;;;;;;;11.35;4.75;;;;;;;16.33;100.00;101486.84;2617018;36;20031;-58
2022/10/25 10:50:31;;;;;;;6.45;4.22;;;;;;;16.16;100.00;101490.44;2617364;36;20521;-57
2022/10/25 10:53:01;;;;;;;10.10;3.80;;;;;;;16.21;100.00;101490.81;2617184;36;20034;-58
2022/10/25 10:55:32;;;;;;;13.02;4.25;;;;;;;16.17;100.00;101492.16;2616132;36;20030;-58
2022/10/25 10:58:04;;;;;;;7.03;4.20;;;;;;;16.36;100.00;101496.56;2618098;36;20424;-55
2022/10/25 11:00:34;;;;;;;9.05;4.70;;;;;;;16.26;100.00;101493.94;2617814;36;20034;-58
2022/10/25 11:03:06;;;;;;;7.90;4.05;;;;;;;16.39;100.00;101494.38;2617663;36;20026;-58
2022/10/25 11:05:36;;;;;;;10.38;5.32;;;;;;;16.43;100.00;101498.47;2607712;36;20049;-58
2022/10/25 11:08:19;;;;;;;7.05;4.32;;;;;;;16.28;100.00;101510.91;2616312;36;20022;-57
2022/10/25 11:10:47;;;;;;;8.68;4.57;;;;;;;16.38;100.00;101511.66;2609450;36;20073;-57
2022/10/25 11:13:18;;;;;;;12.23;4.60;;;;;;;16.54;100.00;101505.50;2608604;31;20057;-57
2022/10/25 11:16:22;;;;;;;10.27;6.03;;;;;;;16.47;100.00;101507.13;2617190;31;20665;-58
2022/10/25 11:19:05;;;;;;;7.53;4.57;;;;;;;16.48;100.00;101513.44;2614042;31;20038;-57
2022/10/25 11:21:45;;;;;;;12.18;5.43;;;;;;;16.53;100.00;101514.66;2615019;36;20531;-58
2022/10/25 11:24:23;;;;;;;10.05;4.57;;;;;;;16.67;100.00;101510.50;2616039;31;20030;-58
2022/10/25 11:26:58;;;;;;;13.05;5.40;;;;;;;16.57;100.00;101515.22;2615734;36;20034;-57
2022/10/25 11:29:57;;;;;;;11.60;5.20;;;;;;;16.66;100.00;101524.28;2613732;36;20625;-59
2022/10/25 11:32:46;;;;;;;7.47;4.28;;;;;;;16.83;100.00;101512.47;2614211;36;20029;-58